sensor_id;sensor_type;location;lat;lon;timestamp;pressure;altitude;pressure_sealevel;temperature;humidity
56272;BME280;42177;48.914;18.160;2023-05-20T00:01:43;991.4;;;13.9;100
56272;BME280;42177;48.914;18.160;2023-05-20T00:06:43;991.3;;;13.7;100
56272;BME280;42177;48.914;18.160;2023-05-20T00:11:44;991.3;;;13.7;100
56272;BME280;42177;48.914;18.160;2023-05-20T00:16:43;991.2;;;13.7;100
56272;BME280;42177;48.914;18.160;2023-05-20T00:21:43;991.2;;;13.7;100
56272;BME280;42177;48.914;18.160;2023-05-20T00:26:43;991.2;;;13.7;100
56272;BME280;42177;48.914;18.160;2023-05-20T00:31:43;991.2;;;13.7;100
56272;BME280;42177;48.914;18.160;2023-05-20T00:36:43;991.2;;;13.5;100
56272;BME280;42177;48.914;18.160;2023-05-20T00:41:43;991.2;;;13.5;100
56272;BME280;42177;48.914;18.160;2023-05-20T00:46:43;991.4;;;13.4;100
56272;BME280;42177;48.914;18.160;2023-05-20T00:51:43;991.4;;;13.4;100
56272;BME280;42177;48.914;18.160;2023-05-20T00:56:43;991.2;;;13.3;100
56272;BME280;42177;48.914;18.160;2023-05-20T01:01:43;991.2;;;13.3;100
56272;BME280;42177;48.914;18.160;2023-05-20T01:06:43;991.2;;;13.3;100
56272;BME280;42177;48.914;18.160;2023-05-20T01:11:44;991.2;;;13.3;100
56272;BME280;42177;48.914;18.160;2023-05-20T01:16:43;991.2;;;13.5;99.4
56272;BME280;42177;48.914;18.160;2023-05-20T01:21:43;991.2;;;13.5;99.4
56272;BME280;42177;48.914;18.160;2023-05-20T01:26:43;991.2;;;13.3;100
56272;BME280;42177;48.914;18.160;2023-05-20T01:31:43;991.2;;;13.3;100
56272;BME280;42177;48.914;18.160;2023-05-20T01:36:43;991.3;;;13.4;100
56272;BME280;42177;48.914;18.160;2023-05-20T01:41:43;991.3;;;13.4;100
56272;BME280;42177;48.914;18.160;2023-05-20T01:46:47;991.3;;;13.3;100
56272;BME280;42177;48.914;18.160;2023-05-20T01:51:43;991.3;;;13.3;100
56272;BME280;42177;48.914;18.160;2023-05-20T01:56:44;991.2;;;12.9;100
56272;BME280;42177;48.914;18.160;2023-05-20T02:01:43;991.2;;;12.9;100
56272;BME280;42177;48.914;18.160;2023-05-20T02:06:43;991.2;;;13.1;100
56272;BME280;42177;48.914;18.160;2023-05-20T02:11:43;991.2;;;13.1;100
56272;BME280;42177;48.914;18.160;2023-05-20T02:16:43;991.2;;;13.2;99.1
56272;BME280;42177;48.914;18.160;2023-05-20T02:21:43;991.2;;;13.2;99.1
56272;BME280;42177;48.914;18.160;2023-05-20T02:26:45;991.1;;;13.3;100
56272;BME280;42177;48.914;18.160;2023-05-20T02:31:43;991.1;;;13.3;100
56272;BME280;42177;48.914;18.160;2023-05-20T02:36:43;991.2;;;13.5;98.9
56272;BME280;42177;48.914;18.160;2023-05-20T02:41:43;991.2;;;13.5;98.9
56272;BME280;42177;48.914;18.160;2023-05-20T02:46:43;991.1;;;13.1;100
56272;BME280;42177;48.914;18.160;2023-05-20T02:51:43;991.1;;;13.1;100
56272;BME280;42177;48.914;18.160;2023-05-20T02:56:43;991.2;;;13.2;100
56272;BME280;42177;48.914;18.160;2023-05-20T03:01:43;991.2;;;13.2;100
56272;BME280;42177;48.914;18.160;2023-05-20T03:06:43;991.3;;;13.3;100
56272;BME280;42177;48.914;18.160;2023-05-20T03:11:43;991.3;;;13.3;100
56272;BME280;42177;48.914;18.160;2023-05-20T03:16:43;991.2;;;13.2;100
56272;BME280;42177;48.914;18.160;2023-05-20T03:21:43;991.2;;;13.2;100
56272;BME280;42177;48.914;18.160;2023-05-20T03:26:43;991.3;;;13.5;100
56272;BME280;42177;48.914;18.160;2023-05-20T03:31:43;991.3;;;13.5;100
56272;BME280;42177;48.914;18.160;2023-05-20T03:36:43;991.3;;;13.6;100
56272;BME280;42177;48.914;18.160;2023-05-20T03:41:43;991.3;;;13.6;100
56272;BME280;42177;48.914;18.160;2023-05-20T03:46:43;991.4;;;13.5;100
56272;BME280;42177;48.914;18.160;2023-05-20T03:51:43;991.4;;;13.5;100
56272;BME280;42177;48.914;18.160;2023-05-20T03:56:43;991.3;;;13.4;100
56272;BME280;42177;48.914;18.160;2023-05-20T04:01:43;991.3;;;13.4;100
56272;BME280;42177;48.914;18.160;2023-05-20T04:06:43;991.4;;;13.8;100
56272;BME280;42177;48.914;18.160;2023-05-20T04:11:43;991.4;;;13.8;100
56272;BME280;42177;48.914;18.160;2023-05-20T04:16:43;991.4;;;13.9;100
56272;BME280;42177;48.914;18.160;2023-05-20T04:21:43;991.4;;;13.9;100
56272;BME280;42177;48.914;18.160;2023-05-20T04:26:43;991.4;;;14;100
56272;BME280;42177;48.914;18.160;2023-05-20T04:31:43;991.4;;;14;100
56272;BME280;42177;48.914;18.160;2023-05-20T04:36:43;991.3;;;14.1;100
56272;BME280;42177;48.914;18.160;2023-05-20T04:41:43;991.3;;;14.1;100
56272;BME280;42177;48.914;18.160;2023-05-20T04:46:43;991.2;;;14.4;100
56272;BME280;42177;48.914;18.160;2023-05-20T04:51:43;991.2;;;14.4;100
56272;BME280;42177;48.914;18.160;2023-05-20T04:56:43;991.4;;;14.4;100
56272;BME280;42177;48.914;18.160;2023-05-20T05:01:43;991.4;;;14.4;100
56272;BME280;42177;48.914;18.160;2023-05-20T05:06:43;991.4;;;14.1;100
56272;BME280;42177;48.914;18.160;2023-05-20T05:11:43;991.4;;;14.1;100
56272;BME280;42177;48.914;18.160;2023-05-20T05:16:43;991.4;;;14.5;100
56272;BME280;42177;48.914;18.160;2023-05-20T05:21:43;991.4;;;14.5;100
56272;BME280;42177;48.914;18.160;2023-05-20T05:26:43;991.4;;;15;100
56272;BME280;42177;48.914;18.160;2023-05-20T05:31:43;991.4;;;15;100
56272;BME280;42177;48.914;18.160;2023-05-20T05:36:43;991.4;;;15.5;97.9
56272;BME280;42177;48.914;18.160;2023-05-20T05:41:43;991.4;;;15.5;97.9
56272;BME280;42177;48.914;18.160;2023-05-20T05:46:43;991.4;;;15.9;95.9
56272;BME280;42177;48.914;18.160;2023-05-20T05:51:43;991.4;;;15.9;95.9
56272;BME280;42177;48.914;18.160;2023-05-20T05:56:43;991.3;;;15.8;96
56272;BME280;42177;48.914;18.160;2023-05-20T06:01:43;991.3;;;15.8;96
56272;BME280;42177;48.914;18.160;2023-05-20T06:06:43;991.3;;;16.1;94.1
56272;BME280;42177;48.914;18.160;2023-05-20T06:11:43;991.3;;;16.1;94.1
56272;BME280;42177;48.914;18.160;2023-05-20T06:16:43;991.2;;;16.2;93.6
56272;BME280;42177;48.914;18.160;2023-05-20T06:21:43;991.2;;;16.2;93.6
56272;BME280;42177;48.914;18.160;2023-05-20T06:26:43;991.2;;;16.7;91.9
56272;BME280;42177;48.914;18.160;2023-05-20T06:31:43;991.2;;;16.7;91.9
56272;BME280;42177;48.914;18.160;2023-05-20T06:36:43;991.3;;;17.1;90.4
56272;BME280;42177;48.914;18.160;2023-05-20T06:41:43;991.3;;;17.1;90.4
56272;BME280;42177;48.914;18.160;2023-05-20T06:46:43;991.2;;;17.4;88.7
56272;BME280;42177;48.914;18.160;2023-05-20T06:51:43;991.2;;;17.4;88.7
56272;BME280;42177;48.914;18.160;2023-05-20T06:56:43;991.1;;;17.5;86.6
56272;BME280;42177;48.914;18.160;2023-05-20T07:01:43;991.1;;;17.5;86.6
56272;BME280;42177;48.914;18.160;2023-05-20T07:06:43;991;;;17.9;85.4
56272;BME280;42177;48.914;18.160;2023-05-20T07:11:43;991;;;17.9;85.4
56272;BME280;42177;48.914;18.160;2023-05-20T07:16:43;990.9;;;18.1;82.8
56272;BME280;42177;48.914;18.160;2023-05-20T07:21:43;990.9;;;18.1;82.8
56272;BME280;42177;48.914;18.160;2023-05-20T07:26:43;990.8;;;18.5;81.7
56272;BME280;42177;48.914;18.160;2023-05-20T07:31:43;990.8;;;18.5;81.7
56272;BME280;42177;48.914;18.160;2023-05-20T07:36:43;990.7;;;18.5;81.2
56272;BME280;42177;48.914;18.160;2023-05-20T07:41:43;990.7;;;18.5;81.2
56272;BME280;42177;48.914;18.160;2023-05-20T07:46:43;990.7;;;18.8;80.3
56272;BME280;42177;48.914;18.160;2023-05-20T07:51:43;990.7;;;18.8;80.3
56272;BME280;42177;48.914;18.160;2023-05-20T07:56:43;990.6;;;19.3;80.5
56272;BME280;42177;48.914;18.160;2023-05-20T08:01:43;990.6;;;19.3;80.5
56272;BME280;42177;48.914;18.160;2023-05-20T08:06:43;990.5;;;19.8;76.4
56272;BME280;42177;48.914;18.160;2023-05-20T08:11:43;990.5;;;19.8;76.4
56272;BME280;42177;48.914;18.160;2023-05-20T08:16:43;990.4;;;20.2;75.2
56272;BME280;42177;48.914;18.160;2023-05-20T08:21:43;990.4;;;20.2;75.2
56272;BME280;42177;48.914;18.160;2023-05-20T08:26:43;990.3;;;20.7;73.7
56272;BME280;42177;48.914;18.160;2023-05-20T08:31:43;990.3;;;20.7;73.7
56272;BME280;42177;48.914;18.160;2023-05-20T08:36:43;990.2;;;21.1;72.9
56272;BME280;42177;48.914;18.160;2023-05-20T08:41:44;990.2;;;21.1;72.9
56272;BME280;42177;48.914;18.160;2023-05-20T08:46:43;990.1;;;21.7;71.2
56272;BME280;42177;48.914;18.160;2023-05-20T08:51:43;990.1;;;21.7;71.2
56272;BME280;42177;48.914;18.160;2023-05-20T08:56:43;990;;;21.9;70.1
56272;BME280;42177;48.914;18.160;2023-05-20T09:01:43;990;;;21.9;70.1
56272;BME280;42177;48.914;18.160;2023-05-20T09:06:43;989.9;;;22.6;69.5
56272;BME280;42177;48.914;18.160;2023-05-20T09:11:43;989.9;;;22.6;69.5
56272;BME280;42177;48.914;18.160;2023-05-20T09:16:43;990;;;22.9;67.3
56272;BME280;42177;48.914;18.160;2023-05-20T09:21:43;990;;;22.9;67.3
56272;BME280;42177;48.914;18.160;2023-05-20T09:26:43;989.8;;;23.3;64.6
56272;BME280;42177;48.914;18.160;2023-05-20T09:31:43;989.8;;;23.3;64.6
56272;BME280;42177;48.914;18.160;2023-05-20T09:36:43;989.7;;;23.7;63.6
56272;BME280;42177;48.914;18.160;2023-05-20T09:41:47;989.7;;;23.7;63.6
56272;BME280;42177;48.914;18.160;2023-05-20T09:46:43;989.7;;;24.2;60.5
56272;BME280;42177;48.914;18.160;2023-05-20T09:51:43;989.7;;;24.2;60.5
56272;BME280;42177;48.914;18.160;2023-05-20T09:56:43;989.6;;;24;60.1
56272;BME280;42177;48.914;18.160;2023-05-20T10:01:43;989.6;;;24;60.1
56272;BME280;42177;48.914;18.160;2023-05-20T10:06:49;989.5;;;24.6;53.7
56272;BME280;42177;48.914;18.160;2023-05-20T10:11:44;989.5;;;24.6;53.7
56272;BME280;42177;48.914;18.160;2023-05-20T10:16:45;989.4;;;25;54.7
56272;BME280;42177;48.914;18.160;2023-05-20T10:21:43;989.4;;;25;54.7
56272;BME280;42177;48.914;18.160;2023-05-20T10:26:43;989.2;;;25.4;51.2
56272;BME280;42177;48.914;18.160;2023-05-20T10:31:43;989.2;;;25.4;51.2
56272;BME280;42177;48.914;18.160;2023-05-20T10:36:44;989.2;;;25.8;48.2
56272;BME280;42177;48.914;18.160;2023-05-20T10:41:43;989.2;;;25.8;48.2
56272;BME280;42177;48.914;18.160;2023-05-20T10:46:43;989.1;;;26.2;47.7
56272;BME280;42177;48.914;18.160;2023-05-20T10:51:43;989.1;;;26.2;47.7
56272;BME280;42177;48.914;18.160;2023-05-20T10:56:49;989;;;26.4;42.1
56272;BME280;42177;48.914;18.160;2023-05-20T11:01:43;989;;;26.4;42.1
56272;BME280;42177;48.914;18.160;2023-05-20T11:06:48;988.9;;;26.7;38.3
56272;BME280;42177;48.914;18.160;2023-05-20T11:11:43;988.9;;;26.7;38.3
56272;BME280;42177;48.914;18.160;2023-05-20T11:16:44;988.7;;;26.8;37.7
56272;BME280;42177;48.914;18.160;2023-05-20T11:21:43;988.7;;;26.8;37.7
56272;BME280;42177;48.914;18.160;2023-05-20T11:26:43;988.5;;;26.7;37
56272;BME280;42177;48.914;18.160;2023-05-20T11:31:43;988.5;;;26.7;37
56272;BME280;42177;48.914;18.160;2023-05-20T11:36:43;988.4;;;26.6;37.3
56272;BME280;42177;48.914;18.160;2023-05-20T11:41:43;988.4;;;26.6;37.3
56272;BME280;42177;48.914;18.160;2023-05-20T11:46:44;988.4;;;27.2;35.2
56272;BME280;42177;48.914;18.160;2023-05-20T11:51:43;988.4;;;27.2;35.2
56272;BME280;42177;48.914;18.160;2023-05-20T11:56:43;988.4;;;27.3;34.5
56272;BME280;42177;48.914;18.160;2023-05-20T12:01:43;988.4;;;27.3;34.5
56272;BME280;42177;48.914;18.160;2023-05-20T12:06:43;988.3;;;27.8;35.3
56272;BME280;42177;48.914;18.160;2023-05-20T12:11:43;988.3;;;27.8;35.3
56272;BME280;42177;48.914;18.160;2023-05-20T12:16:43;988.2;;;27.5;35.3
56272;BME280;42177;48.914;18.160;2023-05-20T12:21:43;988.2;;;27.5;35.3
56272;BME280;42177;48.914;18.160;2023-05-20T12:26:43;988.3;;;27.6;35.8
56272;BME280;42177;48.914;18.160;2023-05-20T12:31:43;988.3;;;27.6;35.8
56272;BME280;42177;48.914;18.160;2023-05-20T12:36:46;988.2;;;27.4;35.6
56272;BME280;42177;48.914;18.160;2023-05-20T12:41:46;988.2;;;27.4;35.6
56272;BME280;42177;48.914;18.160;2023-05-20T12:46:43;988.1;;;27;34.2
56272;BME280;42177;48.914;18.160;2023-05-20T12:51:43;988.1;;;27;34.2
56272;BME280;42177;48.914;18.160;2023-05-20T12:56:43;988.1;;;27.1;34
56272;BME280;42177;48.914;18.160;2023-05-20T13:01:43;988.1;;;27.1;34
56272;BME280;42177;48.914;18.160;2023-05-20T13:06:43;988;;;28.4;33
56272;BME280;42177;48.914;18.160;2023-05-20T13:11:43;988;;;28.4;33
56272;BME280;42177;48.914;18.160;2023-05-20T13:16:43;987.8;;;28.2;33.4
56272;BME280;42177;48.914;18.160;2023-05-20T13:21:43;987.8;;;28.2;33.4
56272;BME280;42177;48.914;18.160;2023-05-20T13:26:43;987.7;;;28.7;33.2
56272;BME280;42177;48.914;18.160;2023-05-20T13:31:43;987.7;;;28.7;33.2
56272;BME280;42177;48.914;18.160;2023-05-20T13:36:43;987.6;;;28.4;31.6
56272;BME280;42177;48.914;18.160;2023-05-20T13:41:43;987.6;;;28.4;31.6
56272;BME280;42177;48.914;18.160;2023-05-20T13:46:43;987.6;;;28.2;30.6
56272;BME280;42177;48.914;18.160;2023-05-20T13:51:43;987.6;;;28.2;30.6
56272;BME280;42177;48.914;18.160;2023-05-20T13:56:43;987.6;;;28.9;33.3
56272;BME280;42177;48.914;18.160;2023-05-20T14:01:43;987.6;;;28.9;33.3
56272;BME280;42177;48.914;18.160;2023-05-20T14:06:43;987.4;;;28.7;33.1
56272;BME280;42177;48.914;18.160;2023-05-20T14:11:43;987.4;;;28.7;33.1
56272;BME280;42177;48.914;18.160;2023-05-20T14:16:43;987.4;;;29.5;33
56272;BME280;42177;48.914;18.160;2023-05-20T14:21:43;987.4;;;29.5;33
56272;BME280;42177;48.914;18.160;2023-05-20T14:26:43;987.3;;;28.1;36.1
56272;BME280;42177;48.914;18.160;2023-05-20T14:31:43;987.3;;;28.1;36.1
56272;BME280;42177;48.914;18.160;2023-05-20T14:36:43;987.3;;;26.6;41.4
56272;BME280;42177;48.914;18.160;2023-05-20T14:41:43;987.3;;;26.6;41.4
56272;BME280;42177;48.914;18.160;2023-05-20T14:46:43;987.5;;;25.4;44.6
56272;BME280;42177;48.914;18.160;2023-05-20T14:51:43;987.5;;;25.4;44.6
56272;BME280;42177;48.914;18.160;2023-05-20T14:56:43;987.3;;;26.6;44
56272;BME280;42177;48.914;18.160;2023-05-20T15:01:43;987.3;;;26.6;44
56272;BME280;42177;48.914;18.160;2023-05-20T15:06:43;987.3;;;27.4;44.4
56272;BME280;42177;48.914;18.160;2023-05-20T15:11:43;987.3;;;27.4;44.4
56272;BME280;42177;48.914;18.160;2023-05-20T15:16:43;987.3;;;26.3;45.8
56272;BME280;42177;48.914;18.160;2023-05-20T15:21:43;987.3;;;26.3;45.8
56272;BME280;42177;48.914;18.160;2023-05-20T15:26:43;987.3;;;25.6;46
56272;BME280;42177;48.914;18.160;2023-05-20T15:31:43;987.3;;;25.6;46
56272;BME280;42177;48.914;18.160;2023-05-20T15:36:43;987.2;;;26.3;44
56272;BME280;42177;48.914;18.160;2023-05-20T15:41:43;987.2;;;26.3;44
56272;BME280;42177;48.914;18.160;2023-05-20T15:46:43;987.1;;;25.4;45
56272;BME280;42177;48.914;18.160;2023-05-20T15:51:43;987.1;;;25.4;45
56272;BME280;42177;48.914;18.160;2023-05-20T15:56:43;987.3;;;24.6;46.7
56272;BME280;42177;48.914;18.160;2023-05-20T16:01:43;987.3;;;24.6;46.7
56272;BME280;42177;48.914;18.160;2023-05-20T16:06:43;987.3;;;25.5;45.4
56272;BME280;42177;48.914;18.160;2023-05-20T16:11:43;987.3;;;25.5;45.4
56272;BME280;42177;48.914;18.160;2023-05-20T16:16:43;987.3;;;24.4;55.5
56272;BME280;42177;48.914;18.160;2023-05-20T16:21:43;987.3;;;24.4;55.5
56272;BME280;42177;48.914;18.160;2023-05-20T16:26:43;987.3;;;24.1;59.9
56272;BME280;42177;48.914;18.160;2023-05-20T16:31:43;987.3;;;24.1;59.9
56272;BME280;42177;48.914;18.160;2023-05-20T16:36:43;987.3;;;23.2;64.5
56272;BME280;42177;48.914;18.160;2023-05-20T16:41:43;987.3;;;23.2;64.5
56272;BME280;42177;48.914;18.160;2023-05-20T16:46:43;987.5;;;22.8;68.1
56272;BME280;42177;48.914;18.160;2023-05-20T16:51:43;987.5;;;22.8;68.1
56272;BME280;42177;48.914;18.160;2023-05-20T16:56:43;987.4;;;22.4;70.9
56272;BME280;42177;48.914;18.160;2023-05-20T17:01:43;987.4;;;22.4;70.9
56272;BME280;42177;48.914;18.160;2023-05-20T17:06:43;987.6;;;22.5;69.3
56272;BME280;42177;48.914;18.160;2023-05-20T17:11:43;987.6;;;22.5;69.3
56272;BME280;42177;48.914;18.160;2023-05-20T17:16:43;987.7;;;22.5;69.8
56272;BME280;42177;48.914;18.160;2023-05-20T17:21:43;987.7;;;22.5;69.8
56272;BME280;42177;48.914;18.160;2023-05-20T17:26:43;987.7;;;22.5;69.6
56272;BME280;42177;48.914;18.160;2023-05-20T17:31:43;987.7;;;22.5;69.6
56272;BME280;42177;48.914;18.160;2023-05-20T17:36:43;987.7;;;22.5;59.2
56272;BME280;42177;48.914;18.160;2023-05-20T17:41:43;987.7;;;22.5;59.2
56272;BME280;42177;48.914;18.160;2023-05-20T17:46:43;987.7;;;22.3;61.5
56272;BME280;42177;48.914;18.160;2023-05-20T17:51:43;987.7;;;22.3;61.5
56272;BME280;42177;48.914;18.160;2023-05-20T17:56:43;987.8;;;21.9;66.4
56272;BME280;42177;48.914;18.160;2023-05-20T18:01:43;987.8;;;21.9;66.4
56272;BME280;42177;48.914;18.160;2023-05-20T18:06:43;987.8;;;21.5;70.9
56272;BME280;42177;48.914;18.160;2023-05-20T18:11:43;987.8;;;21.5;70.9
56272;BME280;42177;48.914;18.160;2023-05-20T18:16:43;987.9;;;21.4;73.3
56272;BME280;42177;48.914;18.160;2023-05-20T18:21:43;987.9;;;21.4;73.3
56272;BME280;42177;48.914;18.160;2023-05-20T18:26:43;987.9;;;21.2;75
56272;BME280;42177;48.914;18.160;2023-05-20T18:31:43;987.9;;;21.2;75
56272;BME280;42177;48.914;18.160;2023-05-20T18:36:43;988;;;21.1;76.1
56272;BME280;42177;48.914;18.160;2023-05-20T18:41:43;988;;;21.1;76.1
56272;BME280;42177;48.914;18.160;2023-05-20T18:46:43;987.9;;;20.9;78.8
56272;BME280;42177;48.914;18.160;2023-05-20T18:51:43;987.9;;;20.9;78.8
56272;BME280;42177;48.914;18.160;2023-05-20T18:56:43;988;;;20.8;79.2
56272;BME280;42177;48.914;18.160;2023-05-20T19:01:43;988;;;20.8;79.2
56272;BME280;42177;48.914;18.160;2023-05-20T19:06:43;988;;;20.4;79.9
56272;BME280;42177;48.914;18.160;2023-05-20T19:11:43;988;;;20.4;79.9
56272;BME280;42177;48.914;18.160;2023-05-20T19:16:43;988.2;;;20.4;80.2
56272;BME280;42177;48.914;18.160;2023-05-20T19:21:43;988.2;;;20.4;80.2
56272;BME280;42177;48.914;18.160;2023-05-20T19:26:43;988.2;;;20.1;82.3
56272;BME280;42177;48.914;18.160;2023-05-20T19:31:43;988.2;;;20.1;82.3
56272;BME280;42177;48.914;18.160;2023-05-20T19:36:43;988.3;;;19.8;83.2
56272;BME280;42177;48.914;18.160;2023-05-20T19:41:43;988.3;;;19.8;83.2
56272;BME280;42177;48.914;18.160;2023-05-20T19:46:43;988.3;;;19.8;83.5
56272;BME280;42177;48.914;18.160;2023-05-20T19:51:43;988.3;;;19.8;83.5
56272;BME280;42177;48.914;18.160;2023-05-20T19:56:43;988.3;;;19.6;84.3
56272;BME280;42177;48.914;18.160;2023-05-20T20:01:43;988.3;;;19.6;84.3
56272;BME280;42177;48.914;18.160;2023-05-20T20:06:43;988.4;;;19.3;87
56272;BME280;42177;48.914;18.160;2023-05-20T20:11:43;988.4;;;19.3;87
56272;BME280;42177;48.914;18.160;2023-05-20T20:16:43;988.4;;;19.4;86.5
56272;BME280;42177;48.914;18.160;2023-05-20T20:21:44;988.4;;;19.4;86.5
56272;BME280;42177;48.914;18.160;2023-05-20T20:26:43;988.5;;;18.9;87.9
56272;BME280;42177;48.914;18.160;2023-05-20T20:31:43;988.5;;;18.9;87.9
56272;BME280;42177;48.914;18.160;2023-05-20T20:36:45;988.5;;;19.4;86
56272;BME280;42177;48.914;18.160;2023-05-20T20:41:44;988.5;;;19.4;86
56272;BME280;42177;48.914;18.160;2023-05-20T20:46:43;988.4;;;19.4;86.2
56272;BME280;42177;48.914;18.160;2023-05-20T20:51:43;988.4;;;19.4;86.2
56272;BME280;42177;48.914;18.160;2023-05-20T20:56:43;988.5;;;19.3;88.1
56272;BME280;42177;48.914;18.160;2023-05-20T21:01:43;988.5;;;19.3;88.1
56272;BME280;42177;48.914;18.160;2023-05-20T21:06:43;988.6;;;19.2;92.7
56272;BME280;42177;48.914;18.160;2023-05-20T21:11:43;988.6;;;19.2;92.7
56272;BME280;42177;48.914;18.160;2023-05-20T21:16:43;988.6;;;18.9;100
56272;BME280;42177;48.914;18.160;2023-05-20T21:21:43;988.6;;;18.9;100
56272;BME280;42177;48.914;18.160;2023-05-20T21:26:43;988.4;;;19;100
56272;BME280;42177;48.914;18.160;2023-05-20T21:31:43;988.4;;;19;100
56272;BME280;42177;48.914;18.160;2023-05-20T21:36:43;988.5;;;18.9;100
56272;BME280;42177;48.914;18.160;2023-05-20T21:41:43;988.5;;;18.9;100
56272;BME280;42177;48.914;18.160;2023-05-20T21:46:43;988.5;;;18.8;100
56272;BME280;42177;48.914;18.160;2023-05-20T21:51:43;988.5;;;18.8;100
56272;BME280;42177;48.914;18.160;2023-05-20T21:56:43;988.5;;;18.9;100
56272;BME280;42177;48.914;18.160;2023-05-20T22:01:43;988.5;;;18.9;100
56272;BME280;42177;48.914;18.160;2023-05-20T22:06:43;988.5;;;18.8;100
56272;BME280;42177;48.914;18.160;2023-05-20T22:11:43;988.5;;;18.8;100
56272;BME280;42177;48.914;18.160;2023-05-20T22:16:44;988.4;;;18.6;100
56272;BME280;42177;48.914;18.160;2023-05-20T22:21:44;988.4;;;18.6;100
56272;BME280;42177;48.914;18.160;2023-05-20T22:26:43;988.5;;;18.5;100
56272;BME280;42177;48.914;18.160;2023-05-20T22:31:43;988.5;;;18.5;100
56272;BME280;42177;48.914;18.160;2023-05-20T22:36:43;988.5;;;18.5;100
56272;BME280;42177;48.914;18.160;2023-05-20T22:41:43;988.5;;;18.5;100
56272;BME280;42177;48.914;18.160;2023-05-20T22:46:43;988.3;;;18.2;100
56272;BME280;42177;48.914;18.160;2023-05-20T22:51:43;988.3;;;18.2;100
56272;BME280;42177;48.914;18.160;2023-05-20T22:56:43;988.4;;;18.1;100
56272;BME280;42177;48.914;18.160;2023-05-20T23:01:43;988.4;;;18.1;100
56272;BME280;42177;48.914;18.160;2023-05-20T23:06:43;988.3;;;17.9;100
56272;BME280;42177;48.914;18.160;2023-05-20T23:11:43;988.3;;;17.9;100
56272;BME280;42177;48.914;18.160;2023-05-20T23:16:43;988.3;;;17.8;100
56272;BME280;42177;48.914;18.160;2023-05-20T23:21:43;988.3;;;17.8;100
56272;BME280;42177;48.914;18.160;2023-05-20T23:26:43;988.3;;;17.8;100
56272;BME280;42177;48.914;18.160;2023-05-20T23:31:43;988.3;;;17.8;100
56272;BME280;42177;48.914;18.160;2023-05-20T23:36:43;988.3;;;17.5;100
56272;BME280;42177;48.914;18.160;2023-05-20T23:41:43;988.3;;;17.5;100
56272;BME280;42177;48.914;18.160;2023-05-20T23:46:43;988.3;;;17.6;100
56272;BME280;42177;48.914;18.160;2023-05-20T23:51:43;988.3;;;17.6;100
56272;BME280;42177;48.914;18.160;2023-05-20T23:56:43;988.2;;;17.5;100
